Wahkon, Minnesota
Current Conditions -  °F | °C
As of 8:00 AM on Monday 24 Nov 2014 (Local Time) from KJMR Reporting Station
Overcast Overcast  
Wind Chill: 10°   Ceiling: 1100
Heat Index: 25°   Visibility: 10mi
Dew Point: 21°   Wind: 22mph
Humidity: 86%   Direction: 330°NNW
Pressure: 29.36"   Gusts: 29mph
Location:  46.12°N, 93.52°W
Report Text: KJMR 241400Z AUTO 33019G25KT 10SM OVC011 M04/M06 A2936 RMK AO2
Loading
Personal Weather Stations






























Interactive Weather Map New forecast layout! Learn more

10-Day Weather Forecast

Advertisements
Track Severe Weather on mobile